sensor_id;sensor_type;location;lat;lon;timestamp;pressure;altitude;pressure_sealevel;temperature;humidity
53522;BME280;39398;48.382;9.802;2023-01-29T00:03:43;94600.75;;;-0.53;100.00
53522;BME280;39398;48.382;9.802;2023-01-29T00:08:46;94595.25;;;-1.23;100.00
53522;BME280;39398;48.382;9.802;2023-01-29T00:13:48;94601.47;;;-1.13;100.00
53522;BME280;39398;48.382;9.802;2023-01-29T00:18:51;94614.81;;;-1.57;100.00
53522;BME280;39398;48.382;9.802;2023-01-29T00:23:54;94632.34;;;-1.35;100.00
53522;BME280;39398;48.382;9.802;2023-01-29T00:28:56;94616.72;;;-1.47;100.00
53522;BME280;39398;48.382;9.802;2023-01-29T00:33:57;94614.53;;;-1.53;100.00
53522;BME280;39398;48.382;9.802;2023-01-29T00:39:00;94614.75;;;-1.30;100.00
53522;BME280;39398;48.382;9.802;2023-01-29T00:44:02;94616.72;;;-1.34;100.00
53522;BME280;39398;48.382;9.802;2023-01-29T00:49:05;94617.03;;;-1.26;100.00
53522;BME280;39398;48.382;9.802;2023-01-29T00:54:08;94611.03;;;-0.64;100.00
53522;BME280;39398;48.382;9.802;2023-01-29T00:59:09;94604.59;;;-1.21;100.00
53522;BME280;39398;48.382;9.802;2023-01-29T01:04:11;94587.25;;;-0.82;100.00
53522;BME280;39398;48.382;9.802;2023-01-29T01:09:14;94603.75;;;-1.47;100.00
53522;BME280;39398;48.382;9.802;2023-01-29T01:14:16;94607.56;;;-1.65;100.00
53522;BME280;39398;48.382;9.802;2023-01-29T01:19:18;94613.25;;;-1.60;100.00
53522;BME280;39398;48.382;9.802;2023-01-29T01:24:20;94604.66;;;-1.60;100.00
53522;BME280;39398;48.382;9.802;2023-01-29T01:29:22;94595.56;;;-1.41;100.00
53522;BME280;39398;48.382;9.802;2023-01-29T01:34:24;94604.41;;;-1.83;100.00
53522;BME280;39398;48.382;9.802;2023-01-29T01:39:32;94594.41;;;-1.75;100.00
53522;BME280;39398;48.382;9.802;2023-01-29T01:45:04;94596.38;;;-1.66;100.00
53522;BME280;39398;48.382;9.802;2023-01-29T01:50:08;94597.00;;;-1.62;100.00
53522;BME280;39398;48.382;9.802;2023-01-29T01:55:15;94591.00;;;-1.62;100.00
53522;BME280;39398;48.382;9.802;2023-01-29T02:00:19;94583.53;;;-1.67;100.00
53522;BME280;39398;48.382;9.802;2023-01-29T02:05:23;94582.50;;;-1.39;100.00
53522;BME280;39398;48.382;9.802;2023-01-29T02:10:29;94585.84;;;-1.37;100.00
53522;BME280;39398;48.382;9.802;2023-01-29T02:15:35;94591.44;;;-1.30;100.00
53522;BME280;39398;48.382;9.802;2023-01-29T02:20:38;94582.50;;;-1.65;100.00
53522;BME280;39398;48.382;9.802;2023-01-29T02:26:00;94579.41;;;-1.31;100.00
53522;BME280;39398;48.382;9.802;2023-01-29T02:31:11;94581.69;;;-1.14;100.00
53522;BME280;39398;48.382;9.802;2023-01-29T02:36:25;94574.69;;;-0.88;100.00
53522;BME280;39398;48.382;9.802;2023-01-29T02:41:31;94581.69;;;-1.01;100.00
53522;BME280;39398;48.382;9.802;2023-01-29T02:46:40;94581.56;;;-1.00;100.00
53522;BME280;39398;48.382;9.802;2023-01-29T02:51:48;94585.09;;;-1.13;100.00
53522;BME280;39398;48.382;9.802;2023-01-29T02:56:54;94577.75;;;-1.20;100.00
53522;BME280;39398;48.382;9.802;2023-01-29T03:02:02;94576.97;;;-0.83;100.00
53522;BME280;39398;48.382;9.802;2023-01-29T03:07:08;94581.94;;;-0.80;100.00
53522;BME280;39398;48.382;9.802;2023-01-29T03:12:14;94593.09;;;-1.29;100.00
53522;BME280;39398;48.382;9.802;2023-01-29T03:17:26;94603.03;;;-1.36;100.00
53522;BME280;39398;48.382;9.802;2023-01-29T03:22:31;94603.31;;;-1.53;100.00
53522;BME280;39398;48.382;9.802;2023-01-29T03:27:37;94606.03;;;-1.55;100.00
53522;BME280;39398;48.382;9.802;2023-01-29T03:32:43;94599.19;;;-1.43;100.00
53522;BME280;39398;48.382;9.802;2023-01-29T03:37:47;94601.78;;;-1.43;100.00
53522;BME280;39398;48.382;9.802;2023-01-29T03:42:56;94592.72;;;-0.37;100.00
53522;BME280;39398;48.382;9.802;2023-01-29T03:48:05;94591.06;;;-0.75;100.00
53522;BME280;39398;48.382;9.802;2023-01-29T03:53:16;94578.91;;;-0.74;100.00
53522;BME280;39398;48.382;9.802;2023-01-29T03:58:23;94583.97;;;-0.60;100.00
53522;BME280;39398;48.382;9.802;2023-01-29T04:03:33;94580.59;;;-0.12;100.00
53522;BME280;39398;48.382;9.802;2023-01-29T04:08:41;94591.81;;;0.59;95.87
53522;BME280;39398;48.382;9.802;2023-01-29T04:13:45;94582.88;;;1.08;93.57
53522;BME280;39398;48.382;9.802;2023-01-29T04:18:49;94576.72;;;0.75;92.77
53522;BME280;39398;48.382;9.802;2023-01-29T04:23:51;94583.22;;;0.81;91.36
53522;BME280;39398;48.382;9.802;2023-01-29T04:29:12;94585.97;;;0.44;92.38
53522;BME280;39398;48.382;9.802;2023-01-29T04:34:22;94591.16;;;0.33;94.16
53522;BME280;39398;48.382;9.802;2023-01-29T04:39:31;94581.09;;;0.28;91.97
53522;BME280;39398;48.382;9.802;2023-01-29T04:44:39;94591.00;;;0.69;90.97
53522;BME280;39398;48.382;9.802;2023-01-29T04:49:46;94593.00;;;0.19;94.10
53522;BME280;39398;48.382;9.802;2023-01-29T04:55:18;94588.56;;;-0.63;99.05
53522;BME280;39398;48.382;9.802;2023-01-29T05:00:47;94593.75;;;-0.63;97.31
53522;BME280;39398;48.382;9.802;2023-01-29T05:05:53;94594.34;;;-0.60;100.00
53522;BME280;39398;48.382;9.802;2023-01-29T05:10:57;94595.47;;;-0.64;100.00
53522;BME280;39398;48.382;9.802;2023-01-29T05:16:03;94602.88;;;-0.34;96.84
53522;BME280;39398;48.382;9.802;2023-01-29T05:21:07;94587.00;;;-0.05;91.86
53522;BME280;39398;48.382;9.802;2023-01-29T05:26:10;94606.22;;;0.16;92.26
53522;BME280;39398;48.382;9.802;2023-01-29T05:31:12;94604.91;;;0.57;92.33
53522;BME280;39398;48.382;9.802;2023-01-29T05:36:15;94597.25;;;0.20;91.81
53522;BME280;39398;48.382;9.802;2023-01-29T05:41:16;94590.56;;;0.40;93.53
53522;BME280;39398;48.382;9.802;2023-01-29T05:46:18;94591.38;;;0.06;92.62
53522;BME280;39398;48.382;9.802;2023-01-29T05:51:21;94592.88;;;0.21;92.03
53522;BME280;39398;48.382;9.802;2023-01-29T05:56:23;94584.44;;;0.41;90.22
53522;BME280;39398;48.382;9.802;2023-01-29T06:01:25;94593.97;;;0.30;91.28
53522;BME280;39398;48.382;9.802;2023-01-29T06:06:28;94598.00;;;-0.38;96.15
53522;BME280;39398;48.382;9.802;2023-01-29T06:11:29;94601.22;;;-0.35;95.42
53522;BME280;39398;48.382;9.802;2023-01-29T06:16:31;94597.31;;;0.08;94.81
53522;BME280;39398;48.382;9.802;2023-01-29T06:21:34;94588.03;;;0.63;91.40
53522;BME280;39398;48.382;9.802;2023-01-29T06:26:35;94592.81;;;0.34;91.90
53522;BME280;39398;48.382;9.802;2023-01-29T06:31:37;94568.06;;;-0.18;95.34
53522;BME280;39398;48.382;9.802;2023-01-29T06:36:41;94571.97;;;-0.37;95.75
53522;BME280;39398;48.382;9.802;2023-01-29T06:41:43;94558.25;;;0.56;90.97
53522;BME280;39398;48.382;9.802;2023-01-29T06:46:44;94573.06;;;0.20;93.14
53522;BME280;39398;48.382;9.802;2023-01-29T06:51:47;94564.34;;;-0.03;94.64
53522;BME280;39398;48.382;9.802;2023-01-29T06:56:49;94573.50;;;0.14;93.52
53522;BME280;39398;48.382;9.802;2023-01-29T07:01:50;94577.44;;;0.77;90.09
53522;BME280;39398;48.382;9.802;2023-01-29T07:06:53;94589.38;;;0.91;88.61
53522;BME280;39398;48.382;9.802;2023-01-29T07:11:55;94594.03;;;0.52;91.58
53522;BME280;39398;48.382;9.802;2023-01-29T07:16:56;94595.38;;;0.69;89.29
53522;BME280;39398;48.382;9.802;2023-01-29T07:21:59;94596.56;;;0.65;88.75
53522;BME280;39398;48.382;9.802;2023-01-29T07:27:01;94590.75;;;0.73;91.01
53522;BME280;39398;48.382;9.802;2023-01-29T07:32:03;94588.28;;;0.71;91.20
53522;BME280;39398;48.382;9.802;2023-01-29T07:37:06;94584.09;;;0.46;93.12
53522;BME280;39398;48.382;9.802;2023-01-29T07:42:08;94592.38;;;0.16;91.37
53522;BME280;39398;48.382;9.802;2023-01-29T07:47:10;94603.06;;;0.71;92.29
53522;BME280;39398;48.382;9.802;2023-01-29T07:52:13;94613.03;;;1.10;88.22
53522;BME280;39398;48.382;9.802;2023-01-29T07:57:15;94605.66;;;0.82;90.29
53522;BME280;39398;48.382;9.802;2023-01-29T08:02:17;94601.91;;;1.08;89.76
53522;BME280;39398;48.382;9.802;2023-01-29T08:07:20;94613.81;;;0.77;90.83
53522;BME280;39398;48.382;9.802;2023-01-29T08:12:21;94613.13;;;0.98;89.10
53522;BME280;39398;48.382;9.802;2023-01-29T08:17:23;94621.19;;;0.48;92.07
53522;BME280;39398;48.382;9.802;2023-01-29T08:22:26;94633.59;;;1.13;88.46
53522;BME280;39398;48.382;9.802;2023-01-29T08:27:27;94627.09;;;1.53;86.17
53522;BME280;39398;48.382;9.802;2023-01-29T08:32:30;94633.84;;;1.22;85.91
53522;BME280;39398;48.382;9.802;2023-01-29T08:37:33;94635.00;;;0.49;90.50
53522;BME280;39398;48.382;9.802;2023-01-29T08:42:35;94633.75;;;0.06;92.31
53522;BME280;39398;48.382;9.802;2023-01-29T08:47:36;94646.28;;;0.36;92.53
53522;BME280;39398;48.382;9.802;2023-01-29T08:52:39;94646.56;;;-1.15;100.00
53522;BME280;39398;48.382;9.802;2023-01-29T08:57:42;94633.09;;;0.15;94.78
53522;BME280;39398;48.382;9.802;2023-01-29T09:02:44;94633.66;;;0.78;91.64
53522;BME280;39398;48.382;9.802;2023-01-29T09:07:47;94632.97;;;0.87;89.37
53522;BME280;39398;48.382;9.802;2023-01-29T09:12:48;94640.88;;;0.75;88.67
53522;BME280;39398;48.382;9.802;2023-01-29T09:17:50;94647.25;;;0.35;90.98
53522;BME280;39398;48.382;9.802;2023-01-29T09:22:53;94660.75;;;-0.20;96.49
53522;BME280;39398;48.382;9.802;2023-01-29T09:27:54;94665.63;;;0.08;94.71
53522;BME280;39398;48.382;9.802;2023-01-29T09:32:56;94661.97;;;0.35;95.00
53522;BME280;39398;48.382;9.802;2023-01-29T09:37:59;94657.72;;;0.58;92.71
53522;BME280;39398;48.382;9.802;2023-01-29T09:43:03;94670.88;;;-0.05;95.84
53522;BME280;39398;48.382;9.802;2023-01-29T09:48:10;94678.41;;;-0.26;97.78
53522;BME280;39398;48.382;9.802;2023-01-29T09:53:17;94676.56;;;0.49;91.68
53522;BME280;39398;48.382;9.802;2023-01-29T09:58:24;94678.38;;;-1.13;100.00
53522;BME280;39398;48.382;9.802;2023-01-29T10:03:40;94688.06;;;-1.82;100.00
53522;BME280;39398;48.382;9.802;2023-01-29T10:09:00;94670.38;;;-0.59;100.00
53522;BME280;39398;48.382;9.802;2023-01-29T10:14:14;94651.28;;;-0.09;98.91
53522;BME280;39398;48.382;9.802;2023-01-29T10:19:36;94646.69;;;0.19;92.87
53522;BME280;39398;48.382;9.802;2023-01-29T10:24:49;94649.03;;;0.81;90.71
53522;BME280;39398;48.382;9.802;2023-01-29T10:29:54;94637.47;;;0.39;90.00
53522;BME280;39398;48.382;9.802;2023-01-29T10:34:59;94633.94;;;1.20;88.63
53522;BME280;39398;48.382;9.802;2023-01-29T10:40:17;94616.88;;;1.83;86.71
53522;BME280;39398;48.382;9.802;2023-01-29T10:45:25;94607.78;;;1.78;87.36
53522;BME280;39398;48.382;9.802;2023-01-29T10:50:42;94602.94;;;1.62;84.50
53522;BME280;39398;48.382;9.802;2023-01-29T10:55:56;94614.91;;;1.76;84.65
53522;BME280;39398;48.382;9.802;2023-01-29T11:01:11;94609.69;;;1.65;84.18
53522;BME280;39398;48.382;9.802;2023-01-29T11:06:16;94616.81;;;1.17;85.90
53522;BME280;39398;48.382;9.802;2023-01-29T11:11:22;94608.66;;;1.33;89.10
53522;BME280;39398;48.382;9.802;2023-01-29T11:16:25;94609.94;;;0.47;90.42
53522;BME280;39398;48.382;9.802;2023-01-29T11:21:28;94601.38;;;0.69;89.89
53522;BME280;39398;48.382;9.802;2023-01-29T11:26:33;94603.66;;;0.85;91.42
53522;BME280;39398;48.382;9.802;2023-01-29T11:31:37;94616.06;;;0.71;90.37
53522;BME280;39398;48.382;9.802;2023-01-29T11:36:39;94592.09;;;1.23;87.86
53522;BME280;39398;48.382;9.802;2023-01-29T11:41:47;94590.66;;;0.85;91.55
53522;BME280;39398;48.382;9.802;2023-01-29T11:46:49;94580.81;;;1.68;87.07
53522;BME280;39398;48.382;9.802;2023-01-29T11:51:52;94586.78;;;1.47;84.09
53522;BME280;39398;48.382;9.802;2023-01-29T11:56:56;94572.09;;;2.33;82.75
53522;BME280;39398;48.382;9.802;2023-01-29T12:02:04;94575.84;;;2.40;83.32
53522;BME280;39398;48.382;9.802;2023-01-29T12:07:13;94557.16;;;1.59;84.00
53522;BME280;39398;48.382;9.802;2023-01-29T12:12:26;94556.47;;;2.33;83.18
53522;BME280;39398;48.382;9.802;2023-01-29T12:17:31;94546.22;;;2.62;82.23
53522;BME280;39398;48.382;9.802;2023-01-29T12:22:39;94535.69;;;2.43;80.92
53522;BME280;39398;48.382;9.802;2023-01-29T12:27:47;94544.81;;;2.58;80.13
53522;BME280;39398;48.382;9.802;2023-01-29T12:32:54;94529.44;;;1.81;84.56
53522;BME280;39398;48.382;9.802;2023-01-29T12:38:00;94527.84;;;2.22;83.79
53522;BME280;39398;48.382;9.802;2023-01-29T12:43:12;94518.00;;;2.04;81.63
53522;BME280;39398;48.382;9.802;2023-01-29T12:48:22;94511.78;;;1.84;81.62
53522;BME280;39398;48.382;9.802;2023-01-29T12:53:28;94498.84;;;2.36;81.93
53522;BME280;39398;48.382;9.802;2023-01-29T12:58:34;94497.34;;;1.92;81.40
53522;BME280;39398;48.382;9.802;2023-01-29T13:03:45;94507.22;;;1.98;82.88
53522;BME280;39398;48.382;9.802;2023-01-29T13:08:52;94500.09;;;1.35;86.35
53522;BME280;39398;48.382;9.802;2023-01-29T13:13:58;94482.00;;;1.45;88.86
53522;BME280;39398;48.382;9.802;2023-01-29T13:19:02;94473.78;;;1.61;85.88
53522;BME280;39398;48.382;9.802;2023-01-29T13:24:11;94453.88;;;2.13;84.74
53522;BME280;39398;48.382;9.802;2023-01-29T13:29:22;94440.81;;;2.24;84.86
53522;BME280;39398;48.382;9.802;2023-01-29T13:34:26;94430.97;;;1.86;83.86
53522;BME280;39398;48.382;9.802;2023-01-29T13:39:31;94431.44;;;1.59;89.04
53522;BME280;39398;48.382;9.802;2023-01-29T13:44:37;94430.25;;;1.63;88.12
53522;BME280;39398;48.382;9.802;2023-01-29T13:49:43;94437.06;;;1.96;87.14
53522;BME280;39398;48.382;9.802;2023-01-29T13:54:52;94425.47;;;2.10;87.00
53522;BME280;39398;48.382;9.802;2023-01-29T13:59:57;94431.41;;;1.70;88.54
53522;BME280;39398;48.382;9.802;2023-01-29T14:05:39;94422.63;;;1.71;87.81
53522;BME280;39398;48.382;9.802;2023-01-29T14:10:42;94442.16;;;1.45;88.81
53522;BME280;39398;48.382;9.802;2023-01-29T14:21:27;94445.13;;;1.93;87.65
53522;BME280;39398;48.382;9.802;2023-01-29T14:26:32;94459.53;;;2.18;86.53
53522;BME280;39398;48.382;9.802;2023-01-29T14:31:40;94445.69;;;1.97;86.43
53522;BME280;39398;48.382;9.802;2023-01-29T14:36:44;94443.91;;;1.44;86.71
53522;BME280;39398;48.382;9.802;2023-01-29T14:41:48;94443.25;;;1.63;86.82
53522;BME280;39398;48.382;9.802;2023-01-29T14:46:52;94436.78;;;1.78;87.14
53522;BME280;39398;48.382;9.802;2023-01-29T14:51:55;94449.97;;;1.66;87.70
53522;BME280;39398;48.382;9.802;2023-01-29T14:56:59;94452.97;;;1.61;87.63
53522;BME280;39398;48.382;9.802;2023-01-29T15:02:13;94453.53;;;1.65;87.72
53522;BME280;39398;48.382;9.802;2023-01-29T15:07:26;94453.94;;;1.49;87.72
53522;BME280;39398;48.382;9.802;2023-01-29T15:12:34;94453.78;;;1.61;88.42
53522;BME280;39398;48.382;9.802;2023-01-29T15:17:48;94465.75;;;1.85;87.00
53522;BME280;39398;48.382;9.802;2023-01-29T15:22:52;94460.41;;;1.86;87.31
53522;BME280;39398;48.382;9.802;2023-01-29T15:27:56;94467.34;;;1.97;85.86
53522;BME280;39398;48.382;9.802;2023-01-29T15:33:00;94468.81;;;1.90;85.23
53522;BME280;39398;48.382;9.802;2023-01-29T15:38:04;94465.91;;;2.04;85.46
53522;BME280;39398;48.382;9.802;2023-01-29T15:43:19;94465.44;;;1.99;85.53
53522;BME280;39398;48.382;9.802;2023-01-29T15:48:26;94465.66;;;1.43;86.24
53522;BME280;39398;48.382;9.802;2023-01-29T15:53:36;94458.91;;;0.97;89.53
53522;BME280;39398;48.382;9.802;2023-01-29T15:58:38;94460.13;;;0.93;89.83
53522;BME280;39398;48.382;9.802;2023-01-29T16:03:42;94452.84;;;1.19;88.72
53522;BME280;39398;48.382;9.802;2023-01-29T16:08:47;94455.78;;;1.69;88.08
53522;BME280;39398;48.382;9.802;2023-01-29T16:13:51;94447.53;;;1.53;87.20
53522;BME280;39398;48.382;9.802;2023-01-29T16:18:55;94438.63;;;1.88;86.50
53522;BME280;39398;48.382;9.802;2023-01-29T16:24:05;94442.13;;;1.77;85.64
53522;BME280;39398;48.382;9.802;2023-01-29T16:29:10;94443.88;;;1.55;86.28
53522;BME280;39398;48.382;9.802;2023-01-29T16:34:23;94443.00;;;1.66;86.24
53522;BME280;39398;48.382;9.802;2023-01-29T16:39:29;94452.53;;;1.98;86.17
53522;BME280;39398;48.382;9.802;2023-01-29T16:44:34;94443.19;;;1.53;86.78
53522;BME280;39398;48.382;9.802;2023-01-29T16:49:48;94437.88;;;1.76;86.92
53522;BME280;39398;48.382;9.802;2023-01-29T16:54:50;94441.50;;;1.20;86.56
53522;BME280;39398;48.382;9.802;2023-01-29T16:59:54;94443.03;;;1.11;87.67
53522;BME280;39398;48.382;9.802;2023-01-29T17:05:00;94450.31;;;1.40;85.17
53522;BME280;39398;48.382;9.802;2023-01-29T17:10:04;94463.22;;;1.30;84.80
53522;BME280;39398;48.382;9.802;2023-01-29T17:15:28;94467.50;;;1.31;86.21
53522;BME280;39398;48.382;9.802;2023-01-29T17:20:31;94470.06;;;0.77;87.33
53522;BME280;39398;48.382;9.802;2023-01-29T17:25:33;94468.63;;;0.73;87.66
53522;BME280;39398;48.382;9.802;2023-01-29T17:30:36;94468.84;;;0.92;87.57
53522;BME280;39398;48.382;9.802;2023-01-29T17:35:42;94472.13;;;1.05;86.47
53522;BME280;39398;48.382;9.802;2023-01-29T17:40:46;94471.63;;;1.23;86.46
53522;BME280;39398;48.382;9.802;2023-01-29T17:45:50;94473.31;;;1.01;86.83
53522;BME280;39398;48.382;9.802;2023-01-29T17:50:55;94485.13;;;1.28;87.15
53522;BME280;39398;48.382;9.802;2023-01-29T17:55:57;94480.94;;;1.48;86.29
53522;BME280;39398;48.382;9.802;2023-01-29T18:00:58;94474.28;;;0.89;86.67
53522;BME280;39398;48.382;9.802;2023-01-29T18:06:02;94471.69;;;1.00;86.63
53522;BME280;39398;48.382;9.802;2023-01-29T18:11:03;94475.53;;;1.17;85.30
53522;BME280;39398;48.382;9.802;2023-01-29T18:16:05;94484.66;;;1.23;86.85
53522;BME280;39398;48.382;9.802;2023-01-29T18:21:08;94475.25;;;0.99;85.84
53522;BME280;39398;48.382;9.802;2023-01-29T18:26:11;94480.69;;;0.96;85.10
53522;BME280;39398;48.382;9.802;2023-01-29T18:31:13;94481.97;;;0.79;88.07
53522;BME280;39398;48.382;9.802;2023-01-29T18:36:16;94470.06;;;0.77;84.95
53522;BME280;39398;48.382;9.802;2023-01-29T18:41:18;94463.91;;;0.55;86.76
53522;BME280;39398;48.382;9.802;2023-01-29T18:46:19;94461.41;;;0.42;87.40
53522;BME280;39398;48.382;9.802;2023-01-29T18:51:22;94458.81;;;0.42;89.75
53522;BME280;39398;48.382;9.802;2023-01-29T18:56:24;94469.31;;;0.30;88.13
53522;BME280;39398;48.382;9.802;2023-01-29T19:01:26;94464.00;;;0.54;87.54
53522;BME280;39398;48.382;9.802;2023-01-29T19:06:31;94461.75;;;0.27;88.36
53522;BME280;39398;48.382;9.802;2023-01-29T19:11:33;94459.69;;;-0.04;90.84
53522;BME280;39398;48.382;9.802;2023-01-29T19:16:34;94461.13;;;0.01;91.43
53522;BME280;39398;48.382;9.802;2023-01-29T19:21:37;94462.50;;;-0.18;90.49
53522;BME280;39398;48.382;9.802;2023-01-29T19:26:39;94450.50;;;0.04;89.68
53522;BME280;39398;48.382;9.802;2023-01-29T19:31:41;94455.03;;;0.13;92.69
53522;BME280;39398;48.382;9.802;2023-01-29T19:36:43;94456.31;;;-0.28;92.80
53522;BME280;39398;48.382;9.802;2023-01-29T19:41:45;94437.00;;;-0.24;91.10
53522;BME280;39398;48.382;9.802;2023-01-29T19:46:47;94430.59;;;-0.66;94.79
53522;BME280;39398;48.382;9.802;2023-01-29T19:51:50;94444.34;;;-0.42;93.26
53522;BME280;39398;48.382;9.802;2023-01-29T19:56:51;94437.66;;;-0.33;94.48
53522;BME280;39398;48.382;9.802;2023-01-29T20:01:53;94448.19;;;-0.59;94.52
53522;BME280;39398;48.382;9.802;2023-01-29T20:06:56;94437.13;;;-0.50;95.29
53522;BME280;39398;48.382;9.802;2023-01-29T20:11:58;94438.75;;;-0.60;95.42
53522;BME280;39398;48.382;9.802;2023-01-29T20:16:59;94446.78;;;-0.52;94.78
53522;BME280;39398;48.382;9.802;2023-01-29T20:22:02;94451.88;;;-0.15;92.96
53522;BME280;39398;48.382;9.802;2023-01-29T20:27:04;94455.03;;;-0.22;91.47
53522;BME280;39398;48.382;9.802;2023-01-29T20:32:06;94453.13;;;-0.67;93.64
53522;BME280;39398;48.382;9.802;2023-01-29T20:37:10;94455.69;;;-0.43;92.79
53522;BME280;39398;48.382;9.802;2023-01-29T20:42:11;94457.81;;;-0.37;92.69
53522;BME280;39398;48.382;9.802;2023-01-29T20:47:13;94450.06;;;-0.26;90.63
53522;BME280;39398;48.382;9.802;2023-01-29T20:52:16;94448.69;;;-0.78;93.02
53522;BME280;39398;48.382;9.802;2023-01-29T20:57:18;94440.63;;;-0.62;91.61
53522;BME280;39398;48.382;9.802;2023-01-29T21:02:19;94425.63;;;-0.69;92.47
53522;BME280;39398;48.382;9.802;2023-01-29T21:07:23;94428.03;;;-0.55;93.25
53522;BME280;39398;48.382;9.802;2023-01-29T21:12:24;94431.31;;;-0.29;91.44
53522;BME280;39398;48.382;9.802;2023-01-29T21:17:26;94421.81;;;-0.77;91.72
53522;BME280;39398;48.382;9.802;2023-01-29T21:22:30;94422.91;;;-0.68;91.83
53522;BME280;39398;48.382;9.802;2023-01-29T21:27:31;94419.00;;;-0.74;92.32
53522;BME280;39398;48.382;9.802;2023-01-29T21:32:33;94419.28;;;-0.65;95.58
53522;BME280;39398;48.382;9.802;2023-01-29T21:37:36;94407.34;;;-0.68;92.54
53522;BME280;39398;48.382;9.802;2023-01-29T21:42:37;94395.41;;;-1.06;95.64
53522;BME280;39398;48.382;9.802;2023-01-29T21:47:39;94402.19;;;-1.16;96.51
53522;BME280;39398;48.382;9.802;2023-01-29T21:52:42;94395.78;;;-0.99;94.48
53522;BME280;39398;48.382;9.802;2023-01-29T21:57:44;94392.97;;;-1.20;95.98
53522;BME280;39398;48.382;9.802;2023-01-29T22:02:45;94378.75;;;-1.38;96.94
53522;BME280;39398;48.382;9.802;2023-01-29T22:07:49;94376.56;;;-1.08;96.67
53522;BME280;39398;48.382;9.802;2023-01-29T22:12:51;94376.66;;;-1.09;94.98
53522;BME280;39398;48.382;9.802;2023-01-29T22:17:53;94390.06;;;-0.91;93.17
53522;BME280;39398;48.382;9.802;2023-01-29T22:22:57;94379.59;;;-1.14;96.16
53522;BME280;39398;48.382;9.802;2023-01-29T22:27:58;94377.88;;;-1.02;94.79
53522;BME280;39398;48.382;9.802;2023-01-29T22:33:00;94369.78;;;-0.98;93.58
53522;BME280;39398;48.382;9.802;2023-01-29T22:38:03;94372.19;;;-1.31;93.90
53522;BME280;39398;48.382;9.802;2023-01-29T22:43:05;94359.25;;;-1.07;94.36
53522;BME280;39398;48.382;9.802;2023-01-29T22:48:06;94361.06;;;-1.21;94.16
53522;BME280;39398;48.382;9.802;2023-01-29T22:53:10;94348.59;;;-1.39;96.40
53522;BME280;39398;48.382;9.802;2023-01-29T22:58:11;94345.66;;;-1.59;97.27
53522;BME280;39398;48.382;9.802;2023-01-29T23:03:13;94345.13;;;-1.51;97.96
53522;BME280;39398;48.382;9.802;2023-01-29T23:08:16;94339.88;;;-1.62;98.92
53522;BME280;39398;48.382;9.802;2023-01-29T23:13:17;94325.44;;;-1.54;97.39
53522;BME280;39398;48.382;9.802;2023-01-29T23:18:19;94327.28;;;-1.43;96.59
53522;BME280;39398;48.382;9.802;2023-01-29T23:23:22;94318.66;;;-1.44;97.38
53522;BME280;39398;48.382;9.802;2023-01-29T23:28:23;94322.00;;;-1.78;98.09
53522;BME280;39398;48.382;9.802;2023-01-29T23:33:25;94323.00;;;-1.68;99.78
53522;BME280;39398;48.382;9.802;2023-01-29T23:38:28;94317.44;;;-1.75;98.61
53522;BME280;39398;48.382;9.802;2023-01-29T23:43:30;94308.97;;;-1.53;97.90
53522;BME280;39398;48.382;9.802;2023-01-29T23:48:31;94289.38;;;-1.09;94.89
53522;BME280;39398;48.382;9.802;2023-01-29T23:53:34;94280.25;;;-1.02;93.63
53522;BME280;39398;48.382;9.802;2023-01-29T23:58:35;94273.44;;;-1.27;94.24
